Time;durP1;ratioP1;P1;durP2;ratioP2;P2;SDS_P1;SDS_P2;PMS_P1;PMS_P2;Temp;Humidity;BMP_temperature;BMP_pressure;BME280_temperature;BME280_humidity;BME280_pressure;Samples;Min_cycle;Max_cycle;Signal;HPM_P1;HPM_P2
2023/01/09 00:02:23;;;;;;;2.42;1.73;;;;;;;;;;4972143;28;20015;-74
2023/01/09 00:04:48;;;;;;;2.53;1.75;;;;;;;;;;4972226;28;20042;-75
2023/01/09 00:07:16;;;;;;;2.25;1.92;;;;;;;;;;4973028;28;20025;-76
2023/01/09 00:09:41;;;;;;;3.05;1.95;;;;;;;;;;4963348;28;20035;-75
2023/01/09 00:12:07;;;;;;;2.33;1.83;;;;;;;;;;4968418;28;20094;-75
2023/01/09 00:14:32;;;;;;;2.95;1.73;;;;;;;;;;4971550;28;20023;-74
2023/01/09 00:16:57;;;;;;;1.90;1.60;;;;;;;;;;4972184;28;20030;-75
2023/01/09 00:19:23;;;;;;;1.63;1.33;;;;;;;;;;4972040;28;20026;-75
2023/01/09 00:21:48;;;;;;;3.47;2.30;;;;;;;;;;4971280;28;20674;-75
2023/01/09 00:24:16;;;;;;;3.20;1.50;;;;;;;;;;4971651;28;20026;-74
2023/01/09 00:26:41;;;;;;;1.52;1.30;;;;;;;;;;4972312;28;20030;-75
2023/01/09 00:29:09;;;;;;;2.25;1.30;;;;;;;;;;4972096;28;20513;-75
2023/01/09 00:31:35;;;;;;;2.15;1.50;;;;;;;;;;4970518;28;20482;-74
2023/01/09 00:34:06;;;;;;;2.08;1.52;;;;;;;;;;4970952;28;20110;-74
2023/01/09 00:36:31;;;;;;;2.75;1.80;;;;;;;;;;4971711;28;20023;-75
2023/01/09 00:38:57;;;;;;;2.10;1.80;;;;;;;;;;4972243;28;20027;-75
2023/01/09 00:41:32;;;;;;;2.25;1.75;;;;;;;;;;4970365;28;20030;-75
2023/01/09 00:44:03;;;;;;;2.00;1.55;;;;;;;;;;4971000;28;20717;-74
2023/01/09 00:46:40;;;;;;;2.22;1.92;;;;;;;;;;4971340;28;20026;-76
2023/01/09 00:49:07;;;;;;;1.70;1.50;;;;;;;;;;4965728;28;20026;-75
2023/01/09 00:51:36;;;;;;;2.35;1.65;;;;;;;;;;4971003;28;20062;-74
2023/01/09 00:54:02;;;;;;;2.05;1.85;;;;;;;;;;4967699;28;20485;-73
2023/01/09 00:56:30;;;;;;;2.38;1.70;;;;;;;;;;4971163;28;20553;-75
2023/01/09 00:58:56;;;;;;;1.63;1.50;;;;;;;;;;4971808;28;20027;-75
2023/01/09 01:01:21;;;;;;;2.05;1.50;;;;;;;;;;4971717;28;20029;-74
2023/01/09 01:03:47;;;;;;;1.60;1.40;;;;;;;;;;4968790;28;20030;-74
2023/01/09 01:08:56;;;;;;;2.10;1.58;;;;;;;;;;4970259;28;20097;-76
2023/01/09 01:11:21;;;;;;;3.00;1.90;;;;;;;;;;4971499;28;20022;-75
2023/01/09 01:13:47;;;;;;;2.47;1.83;;;;;;;;;;4986390;28;20034;-74
2023/01/09 01:16:17;;;;;;;2.65;2.22;;;;;;;;;;4986255;28;20027;-75
2023/01/09 01:18:42;;;;;;;;;;;;;;;;;;4987169;28;20026;-74
2023/01/09 01:21:09;;;;;;;3.58;2.10;;;;;;;;;;4972108;28;19972;-74
2023/01/09 01:23:34;;;;;;;2.20;1.95;;;;;;;;;;4961635;28;20046;-75
2023/01/09 01:26:10;;;;;;;2.67;1.92;;;;;;;;;;4968046;28;20027;-74
2023/01/09 01:28:36;;;;;;;1.63;1.30;;;;;;;;;;4957192;28;20546;-75
2023/01/09 01:31:03;;;;;;;2.42;1.85;;;;;;;;;;4969481;28;20038;-74
2023/01/09 01:33:32;;;;;;;2.65;1.90;;;;;;;;;;4972628;28;20359;-74
2023/01/09 01:36:03;;;;;;;2.23;1.90;;;;;;;;;;4967858;28;20027;-74
2023/01/09 01:38:29;;;;;;;1.83;1.67;;;;;;;;;;4966395;28;20387;-75
2023/01/09 01:40:55;;;;;;;2.00;1.80;;;;;;;;;;4968437;28;20085;-75
2023/01/09 01:43:23;;;;;;;2.10;1.90;;;;;;;;;;4971150;28;20113;-75
2023/01/09 01:45:48;;;;;;;2.05;1.83;;;;;;;;;;4968774;28;20023;-76
2023/01/09 01:48:27;;;;;;;3.50;1.70;;;;;;;;;;4972135;28;20030;-75
2023/01/09 01:50:59;;;;;;;1.88;1.67;;;;;;;;;;4971344;28;20130;-75
2023/01/09 01:53:34;;;;;;;2.05;1.52;;;;;;;;;;4974050;28;20037;-74
2023/01/09 01:56:04;;;;;;;1.88;1.50;;;;;;;;;;4970919;28;20023;-76
2023/01/09 01:58:32;;;;;;;1.52;1.42;;;;;;;;;;4971116;28;20054;-75
2023/01/09 02:00:57;;;;;;;2.13;1.55;;;;;;;;;;4961301;28;20031;-75
2023/01/09 02:03:27;;;;;;;1.65;1.23;;;;;;;;;;4967502;28;20030;-76
2023/01/09 02:05:53;;;;;;;2.20;1.50;;;;;;;;;;4969284;28;20479;-74
2023/01/09 02:08:21;;;;;;;1.95;1.67;;;;;;;;;;4973327;28;20089;-74
2023/01/09 02:10:48;;;;;;;1.52;1.30;;;;;;;;;;4974968;28;20609;-75
2023/01/09 02:13:14;;;;;;;1.30;1.20;;;;;;;;;;4974633;28;20490;-75
2023/01/09 02:16:05;;;;;;;1.45;1.20;;;;;;;;;;4970394;28;20107;-75
2023/01/09 02:18:41;;;;;;;3.15;1.50;;;;;;;;;;4975099;28;20037;-74
2023/01/09 02:21:22;;;;;;;1.48;1.38;;;;;;;;;;4983610;28;20045;-74
2023/01/09 02:24:08;;;;;;;1.38;1.27;;;;;;;;;;4974707;28;20040;-74
2023/01/09 02:27:19;;;;;;;1.20;1.10;;;;;;;;;;5004045;28;20042;-74
2023/01/09 02:30:24;;;;;;;1.35;1.20;;;;;;;;;;4962969;28;20089;-74
2023/01/09 02:33:10;;;;;;;1.35;1.00;;;;;;;;;;4968298;28;20039;-77
2023/01/09 02:35:51;;;;;;;0.82;0.82;;;;;;;;;;4969857;28;20093;-74
2023/01/09 02:38:26;;;;;;;1.02;1.00;;;;;;;;;;4973841;28;20033;-74
2023/01/09 02:41:03;;;;;;;0.90;0.90;;;;;;;;;;4970590;28;20125;-74
2023/01/09 02:43:32;;;;;;;1.10;1.00;;;;;;;;;;4970386;28;20030;-74
2023/01/09 02:45:57;;;;;;;1.00;1.00;;;;;;;;;;4966138;28;20054;-77
2023/01/09 02:48:22;;;;;;;0.70;0.70;;;;;;;;;;4974184;28;20492;-74
2023/01/09 02:51:11;;;;;;;0.70;0.70;;;;;;;;;;4974495;28;20026;-75
2023/01/09 02:53:48;;;;;;;0.80;0.80;;;;;;;;;;4973809;28;20489;-75
2023/01/09 02:56:35;;;;;;;0.80;0.80;;;;;;;;;;4968487;28;20040;-75
2023/01/09 02:59:03;;;;;;;0.70;0.70;;;;;;;;;;4966472;28;20050;-75
2023/01/09 03:01:57;;;;;;;0.90;0.90;;;;;;;;;;4960303;28;20024;-75
2023/01/09 03:04:40;;;;;;;1.25;1.23;;;;;;;;;;4970859;28;20053;-74
2023/01/09 03:07:12;;;;;;;0.68;0.68;;;;;;;;;;4972915;28;20034;-75
2023/01/09 03:09:41;;;;;;;0.77;0.77;;;;;;;;;;4971763;28;20026;-75
2023/01/09 03:12:15;;;;;;;0.70;0.70;;;;;;;;;;4973109;28;20462;-75
2023/01/09 03:14:45;;;;;;;0.73;0.73;;;;;;;;;;4973229;28;20039;-75
2023/01/09 03:17:18;;;;;;;0.60;0.60;;;;;;;;;;4973161;28;20031;-76
2023/01/09 03:19:47;;;;;;;0.82;0.70;;;;;;;;;;4984848;28;20082;-76
2023/01/09 03:22:15;;;;;;;0.60;0.60;;;;;;;;;;4972679;28;20027;-75
2023/01/09 03:24:40;;;;;;;0.60;0.60;;;;;;;;;;4973117;28;20058;-76
2023/01/09 03:27:09;;;;;;;1.85;0.80;;;;;;;;;;4973802;28;20450;-75
2023/01/09 03:29:37;;;;;;;1.20;1.10;;;;;;;;;;4969558;28;20025;-76
2023/01/09 03:32:02;;;;;;;0.60;0.60;;;;;;;;;;4988515;28;20027;-76
2023/01/09 03:34:28;;;;;;;0.90;0.90;;;;;;;;;;4972026;28;20157;-75
2023/01/09 03:36:53;;;;;;;0.90;0.90;;;;;;;;;;4965845;28;20031;-75
2023/01/09 03:39:18;;;;;;;0.90;0.90;;;;;;;;;;4971056;28;20045;-75
2023/01/09 03:41:44;;;;;;;0.93;0.93;;;;;;;;;;4988278;28;20054;-75
2023/01/09 03:44:12;;;;;;;0.68;0.68;;;;;;;;;;4986691;28;20129;-75
2023/01/09 03:46:40;;;;;;;1.33;0.65;;;;;;;;;;4972992;28;20019;-77
2023/01/09 03:49:08;;;;;;;0.95;0.70;;;;;;;;;;4972923;28;20114;-75
2023/01/09 03:51:34;;;;;;;0.80;0.80;;;;;;;;;;4972850;28;20026;-75
2023/01/09 03:53:59;;;;;;;0.70;0.70;;;;;;;;;;4972939;28;20031;-76
2023/01/09 03:56:24;;;;;;;0.65;0.65;;;;;;;;;;4971620;28;20393;-74
2023/01/09 03:58:52;;;;;;;0.63;0.63;;;;;;;;;;4972241;28;20042;-76
2023/01/09 04:01:17;;;;;;;0.70;0.70;;;;;;;;;;4972819;28;20030;-75
2023/01/09 04:03:42;;;;;;;0.65;0.65;;;;;;;;;;4971582;28;20077;-76
2023/01/09 04:06:10;;;;;;;0.50;0.50;;;;;;;;;;4987295;28;20453;-75
2023/01/09 04:08:35;;;;;;;0.60;0.60;;;;;;;;;;4973001;28;20339;-75
2023/01/09 04:11:01;;;;;;;0.63;0.63;;;;;;;;;;4966580;28;20034;-74
2023/01/09 04:13:26;;;;;;;0.73;0.73;;;;;;;;;;4967794;28;20027;-75
2023/01/09 04:15:52;;;;;;;0.50;0.50;;;;;;;;;;4972647;28;20030;-75
2023/01/09 04:18:17;;;;;;;0.50;0.50;;;;;;;;;;4972179;28;20379;-74
2023/01/09 04:20:46;;;;;;;1.50;1.13;;;;;;;;;;4972421;28;20023;-74
2023/01/09 04:23:11;;;;;;;0.50;0.50;;;;;;;;;;4986619;28;20035;-74
2023/01/09 04:25:37;;;;;;;0.63;0.63;;;;;;;;;;4972282;28;20033;-74
2023/01/09 04:28:02;;;;;;;2.13;0.80;;;;;;;;;;4964837;28;20054;-75
2023/01/09 04:30:27;;;;;;;0.65;0.65;;;;;;;;;;4972154;28;20054;-74
2023/01/09 04:32:53;;;;;;;0.68;0.68;;;;;;;;;;4972345;28;20023;-75
2023/01/09 04:35:19;;;;;;;1.05;0.70;;;;;;;;;;4972558;28;20035;-76
2023/01/09 04:37:44;;;;;;;0.80;0.80;;;;;;;;;;4972424;28;20026;-75
2023/01/09 04:40:13;;;;;;;0.70;0.70;;;;;;;;;;4969247;28;20496;-74
2023/01/09 04:42:39;;;;;;;1.50;0.95;;;;;;;;;;4972616;28;20019;-74
2023/01/09 04:45:06;;;;;;;0.82;0.82;;;;;;;;;;4970917;28;20031;-74
2023/01/09 04:47:32;;;;;;;0.80;0.80;;;;;;;;;;4972662;28;20177;-75
2023/01/09 04:49:58;;;;;;;1.60;0.82;;;;;;;;;;4972254;28;20049;-76
2023/01/09 04:52:23;;;;;;;2.33;0.70;;;;;;;;;;4962376;28;20027;-74
2023/01/09 04:54:49;;;;;;;1.83;1.20;;;;;;;;;;4964956;28;20632;-74
2023/01/09 04:57:15;;;;;;;2.15;0.90;;;;;;;;;;4970829;28;20019;-76
2023/01/09 04:59:40;;;;;;;0.77;0.77;;;;;;;;;;4966175;28;20402;-75
2023/01/09 05:02:05;;;;;;;0.80;0.80;;;;;;;;;;4957876;28;20019;-75
2023/01/09 05:04:35;;;;;;;1.00;0.90;;;;;;;;;;4968313;28;20031;-75
2023/01/09 05:07:00;;;;;;;2.25;1.40;;;;;;;;;;4966568;28;20022;-76
2023/01/09 05:09:25;;;;;;;0.80;0.80;;;;;;;;;;4971095;28;20033;-75
2023/01/09 05:11:51;;;;;;;0.95;0.85;;;;;;;;;;4969172;28;20059;-74
2023/01/09 05:14:16;;;;;;;1.02;0.93;;;;;;;;;;4972440;28;20022;-74
2023/01/09 05:16:42;;;;;;;1.02;0.90;;;;;;;;;;4972161;28;20027;-75
2023/01/09 05:19:07;;;;;;;0.70;0.70;;;;;;;;;;4969819;28;20026;-75
2023/01/09 05:21:33;;;;;;;0.88;0.88;;;;;;;;;;4967875;28;20519;-75
2023/01/09 05:23:58;;;;;;;0.73;0.73;;;;;;;;;;4967423;28;20056;-75
2023/01/09 05:26:23;;;;;;;1.25;1.15;;;;;;;;;;4971894;28;20018;-77
2023/01/09 05:28:55;;;;;;;0.80;0.80;;;;;;;;;;4974705;28;20058;-76
2023/01/09 05:31:23;;;;;;;1.17;1.08;;;;;;;;;;4968832;28;20023;-75
2023/01/09 05:33:51;;;;;;;1.10;1.00;;;;;;;;;;4971945;28;20122;-75
2023/01/09 05:36:16;;;;;;;0.80;0.80;;;;;;;;;;4969576;28;20031;-74
2023/01/09 05:38:42;;;;;;;2.15;1.50;;;;;;;;;;4966391;28;20498;-75
2023/01/09 05:41:09;;;;;;;1.00;1.00;;;;;;;;;;4968421;28;20023;-75
2023/01/09 05:43:35;;;;;;;2.00;1.05;;;;;;;;;;4970225;28;20033;-75
2023/01/09 05:46:00;;;;;;;1.80;1.00;;;;;;;;;;4969137;28;20027;-74
2023/01/09 05:48:28;;;;;;;2.17;1.98;;;;;;;;;;4968620;28;20026;-75
2023/01/09 05:50:53;;;;;;;1.73;1.60;;;;;;;;;;4974349;28;20019;-77
2023/01/09 05:53:19;;;;;;;1.48;1.38;;;;;;;;;;4971686;28;20372;-76
2023/01/09 05:55:47;;;;;;;0.52;0.52;;;;;;;;;;4971571;28;20363;-76
2023/01/09 05:58:12;;;;;;;0.80;0.80;;;;;;;;;;4968534;28;20034;-76
2023/01/09 06:00:38;;;;;;;0.90;0.90;;;;;;;;;;4968547;28;20046;-76
2023/01/09 06:03:03;;;;;;;2.60;0.90;;;;;;;;;;4965560;28;20058;-76
2023/01/09 06:05:28;;;;;;;0.80;0.80;;;;;;;;;;4965978;28;20027;-75
2023/01/09 06:07:54;;;;;;;11.10;2.50;;;;;;;;;;4970340;28;20090;-75
2023/01/09 06:10:19;;;;;;;1.20;1.10;;;;;;;;;;4968055;28;20077;-76
2023/01/09 06:12:53;;;;;;;1.20;1.10;;;;;;;;;;4965859;28;20485;-76
2023/01/09 06:15:19;;;;;;;1.65;1.10;;;;;;;;;;4968942;28;20058;-76
2023/01/09 06:17:45;;;;;;;1.52;1.00;;;;;;;;;;4970795;28;20022;-76
2023/01/09 06:20:14;;;;;;;1.02;0.90;;;;;;;;;;4965647;28;20019;-76
2023/01/09 06:22:39;;;;;;;1.15;1.05;;;;;;;;;;4966935;28;20272;-78
2023/01/09 06:25:07;;;;;;;2.35;1.10;;;;;;;;;;4970213;28;20390;-76
2023/01/09 06:27:33;;;;;;;1.20;1.15;;;;;;;;;;4969698;28;20035;-76
2023/01/09 06:29:58;;;;;;;0.90;0.90;;;;;;;;;;4985256;28;20134;-75
2023/01/09 06:32:24;;;;;;;0.85;0.85;;;;;;;;;;4963416;28;20022;-76
2023/01/09 06:34:54;;;;;;;1.00;1.00;;;;;;;;;;4967523;28;20444;-77
2023/01/09 06:37:19;;;;;;;1.88;1.25;;;;;;;;;;4968587;28;20023;-75
2023/01/09 06:39:45;;;;;;;2.85;1.50;;;;;;;;;;4966647;28;20038;-76
2023/01/09 06:42:10;;;;;;;1.85;1.50;;;;;;;;;;4970195;28;20022;-76
2023/01/09 06:44:38;;;;;;;1.15;1.00;;;;;;;;;;4986470;28;20035;-75
2023/01/09 06:47:03;;;;;;;1.58;1.00;;;;;;;;;;4962618;28;21455;-76
2023/01/09 06:49:29;;;;;;;2.15;1.13;;;;;;;;;;4968603;28;20114;-75
2023/01/09 06:51:57;;;;;;;4.10;1.83;;;;;;;;;;4967363;28;20419;-75
2023/01/09 06:54:22;;;;;;;1.15;1.10;;;;;;;;;;4978378;28;20042;-75
2023/01/09 06:56:47;;;;;;;1.65;1.40;;;;;;;;;;4973253;28;20315;-75
2023/01/09 06:59:15;;;;;;;1.40;1.30;;;;;;;;;;4973208;28;20095;-75
2023/01/09 07:01:40;;;;;;;4.15;1.30;;;;;;;;;;4968044;28;20532;-75
2023/01/09 07:04:08;;;;;;;5.97;1.15;;;;;;;;;;4967630;28;20110;-74
2023/01/09 07:06:34;;;;;;;1.88;1.23;;;;;;;;;;4968839;28;20069;-75
2023/01/09 07:08:59;;;;;;;4.15;1.15;;;;;;;;;;4970186;28;20034;-76
2023/01/09 07:11:25;;;;;;;2.53;0.93;;;;;;;;;;4987636;28;20030;-75
2023/01/09 07:13:52;;;;;;;2.25;1.00;;;;;;;;;;4968456;28;20023;-74
2023/01/09 07:16:18;;;;;;;1.30;1.00;;;;;;;;;;4968989;28;20026;-75
2023/01/09 07:18:43;;;;;;;3.03;1.10;;;;;;;;;;4969279;28;20037;-74
2023/01/09 07:21:09;;;;;;;4.18;1.10;;;;;;;;;;4969009;28;20413;-74
2023/01/09 07:23:34;;;;;;;2.40;1.17;;;;;;;;;;4972608;28;20501;-76
2023/01/09 07:26:04;;;;;;;3.00;1.42;;;;;;;;;;4973131;28;20386;-76
2023/01/09 07:28:29;;;;;;;;;;;;;;;;;;4981525;28;20018;-75
2023/01/09 07:30:55;;;;;;;5.38;1.27;;;;;;;;;;4973620;28;19928;-76
2023/01/09 07:33:20;;;;;;;4.40;1.33;;;;;;;;;;4970767;28;20027;-76
2023/01/09 07:35:49;;;;;;;5.07;1.33;;;;;;;;;;4966763;28;20031;-75
2023/01/09 07:38:17;;;;;;;4.75;1.38;;;;;;;;;;4970519;28;20057;-75
2023/01/09 07:40:44;;;;;;;5.22;2.08;;;;;;;;;;4965448;28;20530;-76
2023/01/09 07:43:10;;;;;;;3.17;1.55;;;;;;;;;;4970043;28;20085;-76
2023/01/09 07:45:38;;;;;;;6.32;2.38;;;;;;;;;;4970093;28;20026;-75
2023/01/09 07:48:03;;;;;;;8.07;2.35;;;;;;;;;;4970207;28;20035;-75
2023/01/09 07:50:29;;;;;;;9.13;2.00;;;;;;;;;;4972224;28;20027;-76
2023/01/09 07:52:54;;;;;;;4.18;1.45;;;;;;;;;;4963652;28;20023;-75
2023/01/09 07:55:20;;;;;;;2.97;1.20;;;;;;;;;;4964731;28;20114;-75
2023/01/09 07:57:49;;;;;;;3.85;1.45;;;;;;;;;;4966311;28;20038;-76
2023/01/09 08:00:15;;;;;;;;;;;;;;;;;;4967721;28;20019;-75
2023/01/09 08:02:40;;;;;;;3.95;0.95;;;;;;;;;;4968826;28;19922;-75
2023/01/09 08:05:07;;;;;;;3.97;1.60;;;;;;;;;;4967500;28;20090;-75
2023/01/09 08:07:33;;;;;;;1.58;1.15;;;;;;;;;;4971305;28;20031;-75
2023/01/09 08:09:58;;;;;;;2.25;1.20;;;;;;;;;;4967885;28;20719;-75
2023/01/09 08:12:24;;;;;;;3.17;1.17;;;;;;;;;;4969123;28;20026;-75
2023/01/09 08:14:50;;;;;;;1.92;1.10;;;;;;;;;;4970419;28;20106;-77
2023/01/09 08:17:15;;;;;;;2.88;1.10;;;;;;;;;;4968646;28;20027;-75
2023/01/09 08:19:42;;;;;;;3.90;1.20;;;;;;;;;;4968130;28;20081;-74
2023/01/09 08:22:08;;;;;;;2.80;1.15;;;;;;;;;;4968036;28;20047;-75
2023/01/09 08:24:35;;;;;;;2.47;1.35;;;;;;;;;;4972046;28;20050;-74
2023/01/09 08:27:03;;;;;;;4.43;1.50;;;;;;;;;;4971117;28;20596;-75
2023/01/09 08:29:29;;;;;;;1.50;1.33;;;;;;;;;;4967990;28;20030;-75
2023/01/09 08:31:55;;;;;;;4.28;1.35;;;;;;;;;;4970320;28;20405;-75
2023/01/09 08:34:20;;;;;;;3.95;1.65;;;;;;;;;;4971240;28;20224;-75
2023/01/09 08:36:46;;;;;;;5.68;1.40;;;;;;;;;;4971472;28;20042;-74
2023/01/09 08:39:11;;;;;;;4.93;1.50;;;;;;;;;;4969403;28;20490;-74
2023/01/09 08:47:05;;;;;;;4.88;1.40;;;;;;;;;;4969055;28;20062;-75
2023/01/09 08:49:34;;;;;;;1.55;1.00;;;;;;;;;;4971567;28;20026;-75
2023/01/09 08:52:02;;;;;;;3.08;1.60;;;;;;;;;;4968761;28;20102;-75
2023/01/09 08:54:28;;;;;;;5.50;2.55;;;;;;;;;;4967981;28;20035;-75
2023/01/09 08:56:55;;;;;;;4.20;1.80;;;;;;;;;;4965142;28;20110;-74
2023/01/09 08:59:21;;;;;;;4.95;1.80;;;;;;;;;;4965055;28;20034;-76
2023/01/09 09:01:51;;;;;;;3.42;1.50;;;;;;;;;;4970170;28;20038;-76
2023/01/09 09:04:16;;;;;;;;;;;;;;;;;;4969839;28;20042;-75
2023/01/09 09:06:42;;;;;;;5.70;1.25;;;;;;;;;;4969409;28;19945;-75
2023/01/09 09:09:09;;;;;;;2.97;1.10;;;;;;;;;;4964791;28;20035;-76
2023/01/09 09:11:35;;;;;;;3.63;1.13;;;;;;;;;;4963879;28;20023;-75
2023/01/09 09:15:11;;;;;;;3.90;1.45;;;;;;;;;;4970737;28;20095;-77
2023/01/09 09:16:46;;;;;;;1.88;1.25;;;;;;;;;;4970090;28;20241;-76
2023/01/09 09:19:12;;;;;;;2.55;1.17;;;;;;;;;;4968599;28;20121;-76
2023/01/09 09:21:37;;;;;;;4.22;1.50;;;;;;;;;;4968494;28;20453;-76
2023/01/09 09:24:05;;;;;;;2.42;1.20;;;;;;;;;;4967818;28;20034;-75
2023/01/09 09:26:31;;;;;;;2.25;1.40;;;;;;;;;;4983937;28;20172;-76
2023/01/09 09:28:57;;;;;;;6.35;1.35;;;;;;;;;;4967464;28;20423;-75
2023/01/09 09:31:25;;;;;;;3.25;1.00;;;;;;;;;;4968683;28;20031;-76
2023/01/09 09:33:50;;;;;;;7.00;2.03;;;;;;;;;;4967936;28;20033;-76
2023/01/09 09:36:16;;;;;;;9.20;1.40;;;;;;;;;;4969544;28;20027;-76
2023/01/09 09:38:41;;;;;;;3.08;0.90;;;;;;;;;;4970233;28;20085;-76
2023/01/09 09:47:26;;;;;;;3.92;0.98;;;;;;;;;;4967895;28;20037;-76
2023/01/09 09:50:04;;;;;;;4.57;1.17;;;;;;;;;;4966783;28;20033;-75
2023/01/09 09:52:33;;;;;;;3.25;0.93;;;;;;;;;;4966329;28;20031;-75
2023/01/09 09:55:03;;;;;;;1.77;0.70;;;;;;;;;;4985304;28;20053;-76
2023/01/09 09:57:35;;;;;;;3.55;0.90;;;;;;;;;;4966527;28;20099;-76
2023/01/09 10:00:05;;;;;;;6.65;1.08;;;;;;;;;;4969115;28;20027;-76
2023/01/09 10:02:39;;;;;;;;;;;;;;;;;;4969872;28;20019;-76
2023/01/09 10:05:14;;;;;;;4.15;1.10;;;;;;;;;;4967664;28;19921;-76
2023/01/09 10:07:46;;;;;;;2.83;1.50;;;;;;;;;;4969747;28;20058;-75
2023/01/09 10:10:31;;;;;;;3.15;0.90;;;;;;;;;;4967399;28;20039;-76
2023/01/09 10:12:59;;;;;;;4.05;1.30;;;;;;;;;;4966922;28;20019;-76
2023/01/09 10:15:33;;;;;;;7.95;1.60;;;;;;;;;;4970303;28;20031;-76
2023/01/09 10:18:17;;;;;;;3.92;1.63;;;;;;;;;;4966016;28;20042;-76
2023/01/09 10:21:07;;;;;;;3.53;1.42;;;;;;;;;;4966166;28;20033;-77
2023/01/09 10:23:53;;;;;;;3.63;1.45;;;;;;;;;;4966126;28;20097;-77
2023/01/09 10:26:27;;;;;;;4.95;2.03;;;;;;;;;;4963889;28;20035;-77
2023/01/09 10:29:10;;;;;;;1.98;1.40;;;;;;;;;;4971439;28;20122;-76
2023/01/09 10:31:51;;;;;;;4.15;2.40;;;;;;;;;;4971899;28;20114;-76
2023/01/09 10:34:37;;;;;;;5.15;1.58;;;;;;;;;;4973825;28;20126;-77
2023/01/09 10:37:18;;;;;;;3.30;1.25;;;;;;;;;;4969688;28;20542;-77
2023/01/09 10:40:05;;;;;;;1.80;0.85;;;;;;;;;;4972689;28;20038;-76
2023/01/09 10:42:37;;;;;;;3.70;1.58;;;;;;;;;;4965516;28;20037;-75
2023/01/09 10:45:29;;;;;;;2.60;1.70;;;;;;;;;;4988475;28;20062;-76
2023/01/09 10:48:02;;;;;;;5.15;1.65;;;;;;;;;;4971112;28;20121;-75
2023/01/09 10:50:33;;;;;;;4.03;1.60;;;;;;;;;;4970090;28;20486;-75
2023/01/09 10:53:04;;;;;;;4.55;1.45;;;;;;;;;;4967020;28;20076;-75
2023/01/09 10:55:49;;;;;;;4.05;1.60;;;;;;;;;;4971456;28;20041;-75
2023/01/09 10:58:24;;;;;;;6.53;1.40;;;;;;;;;;4971745;28;20034;-75
2023/01/09 11:00:50;;;;;;;7.50;1.58;;;;;;;;;;4971123;28;20074;-77
2023/01/09 11:03:21;;;;;;;2.03;1.20;;;;;;;;;;4986985;28;20034;-76
2023/01/09 11:05:56;;;;;;;7.38;1.40;;;;;;;;;;4969743;28;20035;-76
2023/01/09 11:08:27;;;;;;;4.22;2.00;;;;;;;;;;4982622;28;20031;-76
2023/01/09 11:10:55;;;;;;;4.57;1.52;;;;;;;;;;4964707;28;20039;-76
2023/01/09 11:13:28;;;;;;;4.13;1.50;;;;;;;;;;4971191;28;20600;-75
2023/01/09 11:16:22;;;;;;;5.70;1.83;;;;;;;;;;4972013;28;20375;-76
2023/01/09 11:19:00;;;;;;;3.95;1.50;;;;;;;;;;4967980;28;20517;-75
2023/01/09 11:21:40;;;;;;;3.88;1.10;;;;;;;;;;4968061;28;20023;-75
2023/01/09 11:24:34;;;;;;;4.80;1.25;;;;;;;;;;4969174;28;20026;-75
2023/01/09 11:27:11;;;;;;;9.32;1.15;;;;;;;;;;4969330;28;20042;-76
2023/01/09 11:29:38;;;;;;;3.92;1.60;;;;;;;;;;4972366;28;20035;-75
2023/01/09 11:32:03;;;;;;;7.55;2.10;;;;;;;;;;4974266;28;20030;-76
2023/01/09 11:34:38;;;;;;;7.68;3.00;;;;;;;;;;4970601;28;20513;-76
2023/01/09 11:37:09;;;;;;;4.00;1.63;;;;;;;;;;4972672;28;20097;-76
2023/01/09 11:39:40;;;;;;;3.58;1.40;;;;;;;;;;4972006;28;20037;-76
2023/01/09 11:42:17;;;;;;;5.75;1.30;;;;;;;;;;4964629;28;20019;-75
2023/01/09 11:45:05;;;;;;;3.85;1.58;;;;;;;;;;4969329;28;20234;-76
2023/01/09 11:47:39;;;;;;;4.03;1.63;;;;;;;;;;4965110;28;20053;-75
2023/01/09 11:50:21;;;;;;;3.30;1.20;;;;;;;;;;4958248;28;20033;-74
2023/01/09 11:53:18;;;;;;;5.78;1.10;;;;;;;;;;4963858;28;20047;-74
2023/01/09 11:55:47;;;;;;;7.95;2.00;;;;;;;;;;4970781;28;20031;-76
2023/01/09 11:58:18;;;;;;;9.27;3.45;;;;;;;;;;4983484;28;20042;-75
2023/01/09 12:01:04;;;;;;;5.05;1.60;;;;;;;;;;4967641;28;20045;-75
2023/01/09 12:03:59;;;;;;;4.68;1.10;;;;;;;;;;4962726;28;20027;-75
2023/01/09 12:06:32;;;;;;;1.95;0.93;;;;;;;;;;4968454;28;20537;-76
2023/01/09 12:09:02;;;;;;;7.38;1.17;;;;;;;;;;4971036;28;20031;-75
2023/01/09 12:11:31;;;;;;;;;;;;;;;;;;4971736;28;20029;-75
2023/01/09 12:14:08;;;;;;;5.13;2.08;;;;;;;;;;4967885;28;20410;-75
2023/01/09 12:16:45;;;;;;;10.18;3.67;;;;;;;;;;4964965;28;20489;-75
2023/01/09 12:19:36;;;;;;;7.65;2.90;;;;;;;;;;4969867;28;20050;-75
2023/01/09 12:22:34;;;;;;;5.93;1.45;;;;;;;;;;4974013;28;20414;-74
2023/01/09 12:25:36;;;;;;;7.40;2.17;;;;;;;;;;4967941;28;20144;-75
2023/01/09 12:28:32;;;;;;;8.52;2.47;;;;;;;;;;4971911;28;20055;-75
2023/01/09 12:31:06;;;;;;;6.10;2.53;;;;;;;;;;4967865;28;20031;-74
2023/01/09 12:33:53;;;;;;;7.75;2.83;;;;;;;;;;4969795;28;20031;-74
2023/01/09 12:36:49;;;;;;;5.10;2.50;;;;;;;;;;4986710;28;20027;-76
2023/01/09 12:39:43;;;;;;;3.72;2.05;;;;;;;;;;4971685;28;20031;-75
2023/01/09 12:42:38;;;;;;;3.28;1.85;;;;;;;;;;4968716;28;20022;-74
2023/01/09 12:45:24;;;;;;;8.50;1.70;;;;;;;;;;4956043;28;20058;-75
2023/01/09 12:47:51;;;;;;;11.07;2.45;;;;;;;;;;4967013;28;20089;-75
2023/01/09 12:50:41;;;;;;;3.95;1.70;;;;;;;;;;4969137;28;20033;-76
2023/01/09 12:53:14;;;;;;;5.82;1.90;;;;;;;;;;4983054;28;20022;-75
2023/01/09 12:55:43;;;;;;;4.35;1.40;;;;;;;;;;4963386;28;20077;-75
2023/01/09 12:58:24;;;;;;;3.53;1.05;;;;;;;;;;4969852;28;20026;-75
2023/01/09 13:00:53;;;;;;;7.93;1.60;;;;;;;;;;4969959;28;20035;-76
2023/01/09 13:03:38;;;;;;;6.03;1.23;;;;;;;;;;4965299;28;20121;-75
2023/01/09 13:06:10;;;;;;;6.15;1.70;;;;;;;;;;4976884;28;20026;-75
2023/01/09 13:09:04;;;;;;;20.70;5.15;;;;;;;;;;4988057;28;20054;-75
2023/01/09 13:11:50;;;;;;;11.57;2.97;;;;;;;;;;4972523;28;20031;-75
2023/01/09 13:14:36;;;;;;;10.57;3.75;;;;;;;;;;4964588;28;20041;-75
2023/01/09 13:17:03;;;;;;;2.00;0.90;;;;;;;;;;4968196;28;20545;-75
2023/01/09 13:19:38;;;;;;;3.88;1.65;;;;;;;;;;4969315;28;20034;-75
2023/01/09 13:22:09;;;;;;;3.80;1.80;;;;;;;;;;4985110;28;20034;-75
2023/01/09 13:24:56;;;;;;;1.88;1.20;;;;;;;;;;4972067;28;20038;-76
2023/01/09 13:27:26;;;;;;;1.70;1.40;;;;;;;;;;4985342;28;20027;-73
2023/01/09 13:30:02;;;;;;;2.05;1.55;;;;;;;;;;4970287;28;20031;-75
2023/01/09 13:32:36;;;;;;;1.38;1.05;;;;;;;;;;4965431;28;20059;-75
2023/01/09 13:35:05;;;;;;;1.40;1.30;;;;;;;;;;4967800;28;20081;-74
2023/01/09 13:37:35;;;;;;;2.35;1.20;;;;;;;;;;4969783;28;20035;-75
2023/01/09 13:40:28;;;;;;;2.88;1.50;;;;;;;;;;4969071;28;20023;-75
2023/01/09 13:43:05;;;;;;;1.92;1.17;;;;;;;;;;4964884;28;20383;-76
2023/01/09 13:45:36;;;;;;;1.02;1.00;;;;;;;;;;4961692;28;20439;-75
2023/01/09 13:48:08;;;;;;;1.15;1.13;;;;;;;;;;4954125;28;20102;-75
2023/01/09 13:50:37;;;;;;;1.90;1.17;;;;;;;;;;4962817;28;20102;-75
2023/01/09 13:53:17;;;;;;;1.67;1.52;;;;;;;;;;4958179;28;20078;-76
2023/01/09 13:55:58;;;;;;;2.25;1.30;;;;;;;;;;4959565;28;20179;-77
2023/01/09 13:58:27;;;;;;;1.70;1.40;;;;;;;;;;4961333;28;20466;-75
2023/01/09 14:00:56;;;;;;;1.40;1.30;;;;;;;;;;4968076;28;20038;-75
2023/01/09 14:03:24;;;;;;;2.42;1.40;;;;;;;;;;4967644;28;20030;-75
2023/01/09 14:05:52;;;;;;;5.10;2.42;;;;;;;;;;4970854;28;20023;-76
2023/01/09 14:08:20;;;;;;;4.00;1.98;;;;;;;;;;4973504;28;20133;-75
2023/01/09 14:10:56;;;;;;;3.80;2.28;;;;;;;;;;4971369;28;20031;-75
2023/01/09 14:13:25;;;;;;;3.60;2.10;;;;;;;;;;4980620;28;20082;-75
2023/01/09 14:16:00;;;;;;;3.90;1.77;;;;;;;;;;4968417;28;20023;-75
2023/01/09 14:18:28;;;;;;;2.75;1.40;;;;;;;;;;4974970;28;20027;-75
2023/01/09 14:21:01;;;;;;;3.47;2.10;;;;;;;;;;4971978;28;20039;-75
2023/01/09 14:23:36;;;;;;;3.70;2.28;;;;;;;;;;4969573;28;20565;-76
2023/01/09 14:26:02;;;;;;;2.35;1.48;;;;;;;;;;4971513;28;20081;-75
2023/01/09 14:28:32;;;;;;;2.33;1.58;;;;;;;;;;4982922;28;20052;-75
2023/01/09 14:30:57;;;;;;;1.55;1.42;;;;;;;;;;4970811;28;20054;-76
2023/01/09 14:33:25;;;;;;;1.77;1.20;;;;;;;;;;4969424;28;20499;-76
2023/01/09 14:36:06;;;;;;;1.88;1.50;;;;;;;;;;4971852;28;20410;-76
2023/01/09 14:38:41;;;;;;;1.92;1.67;;;;;;;;;;4968720;28;20350;-77
2023/01/09 14:41:19;;;;;;;2.28;1.85;;;;;;;;;;4969035;28;20038;-76
2023/01/09 14:43:48;;;;;;;4.13;2.33;;;;;;;;;;4969358;28;20038;-77
2023/01/09 14:46:19;;;;;;;2.78;2.20;;;;;;;;;;4972984;28;20038;-76
2023/01/09 14:49:06;;;;;;;1.50;1.40;;;;;;;;;;4965666;28;20077;-76
2023/01/09 14:51:36;;;;;;;4.40;2.70;;;;;;;;;;4970156;28;20034;-77
2023/01/09 14:54:16;;;;;;;2.38;1.80;;;;;;;;;;4968018;28;20031;-77
2023/01/09 14:56:46;;;;;;;5.07;2.95;;;;;;;;;;4985632;28;20405;-76
2023/01/09 14:59:15;;;;;;;6.47;3.75;;;;;;;;;;4979084;28;20030;-74
2023/01/09 15:01:44;;;;;;;5.38;3.00;;;;;;;;;;4972346;28;20039;-76
2023/01/09 15:04:33;;;;;;;4.05;2.20;;;;;;;;;;4969230;28;20482;-76
2023/01/09 15:07:02;;;;;;;2.50;1.75;;;;;;;;;;4967271;28;20537;-76
2023/01/09 15:10:01;;;;;;;5.10;2.30;;;;;;;;;;4988521;28;20037;-75
2023/01/09 15:12:27;;;;;;;5.20;2.35;;;;;;;;;;4963023;28;20118;-75
2023/01/09 15:14:56;;;;;;;7.93;3.92;;;;;;;;;;4964935;28;20495;-77
2023/01/09 15:17:26;;;;;;;3.35;1.40;;;;;;;;;;4972242;28;20029;-75
2023/01/09 15:19:52;;;;;;;2.95;1.40;;;;;;;;;;4973540;28;20058;-76
2023/01/09 15:22:50;;;;;;;3.63;2.00;;;;;;;;;;4971503;28;20069;-77
2023/01/09 15:25:36;;;;;;;2.95;1.20;;;;;;;;;;4981428;28;20033;-76